sensor_id;sensor_type;location;lat;lon;timestamp;temperature;humidity
19172;DHT22;9718;52.200;21.052;2022-10-16T00:01:22;14.60;99.90
19172;DHT22;9718;52.200;21.052;2022-10-16T00:03:50;14.60;99.90
19172;DHT22;9718;52.200;21.052;2022-10-16T00:06:19;14.60;99.90
19172;DHT22;9718;52.200;21.052;2022-10-16T00:08:48;14.60;99.90
19172;DHT22;9718;52.200;21.052;2022-10-16T00:11:27;14.60;99.90
19172;DHT22;9718;52.200;21.052;2022-10-16T00:13:57;14.60;99.90
19172;DHT22;9718;52.200;21.052;2022-10-16T00:16:26;14.60;99.90
19172;DHT22;9718;52.200;21.052;2022-10-16T00:18:54;14.60;99.90
19172;DHT22;9718;52.200;21.052;2022-10-16T00:21:23;14.60;99.90
19172;DHT22;9718;52.200;21.052;2022-10-16T00:23:55;14.60;99.90
19172;DHT22;9718;52.200;21.052;2022-10-16T00:26:23;14.60;99.90
19172;DHT22;9718;52.200;21.052;2022-10-16T00:28:51;14.60;99.90
19172;DHT22;9718;52.200;21.052;2022-10-16T00:31:20;14.60;99.90
19172;DHT22;9718;52.200;21.052;2022-10-16T00:33:49;14.60;99.90
19172;DHT22;9718;52.200;21.052;2022-10-16T00:36:19;14.60;99.90
19172;DHT22;9718;52.200;21.052;2022-10-16T00:38:47;14.60;99.90
19172;DHT22;9718;52.200;21.052;2022-10-16T00:41:17;14.60;99.90
19172;DHT22;9718;52.200;21.052;2022-10-16T00:43:51;14.60;99.90
19172;DHT22;9718;52.200;21.052;2022-10-16T00:49:06;14.30;99.90
19172;DHT22;9718;52.200;21.052;2022-10-16T00:51:40;14.20;99.90
19172;DHT22;9718;52.200;21.052;2022-10-16T00:54:17;14.10;99.90
19172;DHT22;9718;52.200;21.052;2022-10-16T00:56:46;14.00;99.90
19172;DHT22;9718;52.200;21.052;2022-10-16T01:01:47;14.00;99.90
19172;DHT22;9718;52.200;21.052;2022-10-16T01:04:14;14.00;99.90
19172;DHT22;9718;52.200;21.052;2022-10-16T01:12:44;14.00;99.90
19172;DHT22;9718;52.200;21.052;2022-10-16T01:18:27;14.20;99.90
19172;DHT22;9718;52.200;21.052;2022-10-16T01:21:06;14.20;99.90
19172;DHT22;9718;52.200;21.052;2022-10-16T01:24:02;14.30;99.90
19172;DHT22;9718;52.200;21.052;2022-10-16T01:29:41;14.30;99.90
19172;DHT22;9718;52.200;21.052;2022-10-16T01:32:19;14.30;99.90
19172;DHT22;9718;52.200;21.052;2022-10-16T01:34:52;14.30;99.90
19172;DHT22;9718;52.200;21.052;2022-10-16T01:37:34;14.30;99.90
19172;DHT22;9718;52.200;21.052;2022-10-16T01:40:07;14.30;99.90
19172;DHT22;9718;52.200;21.052;2022-10-16T01:42:42;14.30;99.90
19172;DHT22;9718;52.200;21.052;2022-10-16T01:45:13;14.40;99.90
19172;DHT22;9718;52.200;21.052;2022-10-16T01:47:42;14.40;99.90
19172;DHT22;9718;52.200;21.052;2022-10-16T01:50:12;14.40;99.90
19172;DHT22;9718;52.200;21.052;2022-10-16T01:52:43;14.40;99.90
19172;DHT22;9718;52.200;21.052;2022-10-16T01:55:13;14.40;99.90
19172;DHT22;9718;52.200;21.052;2022-10-16T01:57:44;14.40;99.90
19172;DHT22;9718;52.200;21.052;2022-10-16T02:00:14;14.40;99.90
19172;DHT22;9718;52.200;21.052;2022-10-16T02:02:47;14.40;99.90
19172;DHT22;9718;52.200;21.052;2022-10-16T02:05:18;14.40;99.90
19172;DHT22;9718;52.200;21.052;2022-10-16T02:07:48;14.40;99.90
19172;DHT22;9718;52.200;21.052;2022-10-16T02:10:15;14.40;99.90
19172;DHT22;9718;52.200;21.052;2022-10-16T02:12:48;14.40;99.90
19172;DHT22;9718;52.200;21.052;2022-10-16T02:15:17;14.30;99.90
19172;DHT22;9718;52.200;21.052;2022-10-16T02:17:44;14.30;99.90
19172;DHT22;9718;52.200;21.052;2022-10-16T02:20:11;14.30;99.90
19172;DHT22;9718;52.200;21.052;2022-10-16T02:22:42;14.20;99.90
19172;DHT22;9718;52.200;21.052;2022-10-16T02:25:19;14.10;99.90
19172;DHT22;9718;52.200;21.052;2022-10-16T02:28:07;14.10;99.90
19172;DHT22;9718;52.200;21.052;2022-10-16T02:33:08;14.00;99.90
19172;DHT22;9718;52.200;21.052;2022-10-16T02:35:37;13.90;99.90
19172;DHT22;9718;52.200;21.052;2022-10-16T02:38:06;13.90;99.90
19172;DHT22;9718;52.200;21.052;2022-10-16T02:40:34;13.90;99.90
19172;DHT22;9718;52.200;21.052;2022-10-16T02:43:03;13.90;99.90
19172;DHT22;9718;52.200;21.052;2022-10-16T02:45:31;13.80;99.90
19172;DHT22;9718;52.200;21.052;2022-10-16T02:47:58;13.80;99.90
19172;DHT22;9718;52.200;21.052;2022-10-16T02:50:26;13.80;99.90
19172;DHT22;9718;52.200;21.052;2022-10-16T02:52:53;13.80;99.90
19172;DHT22;9718;52.200;21.052;2022-10-16T02:55:20;13.80;99.90
19172;DHT22;9718;52.200;21.052;2022-10-16T02:57:47;13.80;99.90
19172;DHT22;9718;52.200;21.052;2022-10-16T03:00:16;13.80;99.90
19172;DHT22;9718;52.200;21.052;2022-10-16T03:02:44;13.80;99.90
19172;DHT22;9718;52.200;21.052;2022-10-16T03:05:11;13.80;99.90
19172;DHT22;9718;52.200;21.052;2022-10-16T03:07:39;13.80;99.90
19172;DHT22;9718;52.200;21.052;2022-10-16T03:10:06;13.80;99.90
19172;DHT22;9718;52.200;21.052;2022-10-16T03:12:33;13.80;99.90
19172;DHT22;9718;52.200;21.052;2022-10-16T03:15:00;13.80;99.90
19172;DHT22;9718;52.200;21.052;2022-10-16T03:17:28;13.80;99.90
19172;DHT22;9718;52.200;21.052;2022-10-16T03:19:55;13.80;99.90
19172;DHT22;9718;52.200;21.052;2022-10-16T03:22:22;13.80;99.90
19172;DHT22;9718;52.200;21.052;2022-10-16T03:24:49;13.80;99.90
19172;DHT22;9718;52.200;21.052;2022-10-16T03:27:16;13.80;99.90
19172;DHT22;9718;52.200;21.052;2022-10-16T03:29:43;13.80;99.90
19172;DHT22;9718;52.200;21.052;2022-10-16T03:32:13;13.80;99.90
19172;DHT22;9718;52.200;21.052;2022-10-16T03:34:40;13.80;99.90
19172;DHT22;9718;52.200;21.052;2022-10-16T03:37:07;13.90;99.90
19172;DHT22;9718;52.200;21.052;2022-10-16T03:39:34;13.80;99.90
19172;DHT22;9718;52.200;21.052;2022-10-16T03:42:01;13.80;99.90
19172;DHT22;9718;52.200;21.052;2022-10-16T03:44:30;13.80;99.90
19172;DHT22;9718;52.200;21.052;2022-10-16T03:46:57;13.80;99.90
19172;DHT22;9718;52.200;21.052;2022-10-16T03:49:24;13.80;99.90
19172;DHT22;9718;52.200;21.052;2022-10-16T03:51:51;13.80;99.90
19172;DHT22;9718;52.200;21.052;2022-10-16T03:54:18;13.80;99.90
19172;DHT22;9718;52.200;21.052;2022-10-16T03:56:45;13.70;99.90
19172;DHT22;9718;52.200;21.052;2022-10-16T03:59:12;13.70;99.90
19172;DHT22;9718;52.200;21.052;2022-10-16T04:01:39;13.70;99.90
19172;DHT22;9718;52.200;21.052;2022-10-16T04:04:07;13.70;99.90
19172;DHT22;9718;52.200;21.052;2022-10-16T04:06:34;13.70;99.90
19172;DHT22;9718;52.200;21.052;2022-10-16T04:09:01;13.60;99.90
19172;DHT22;9718;52.200;21.052;2022-10-16T04:11:29;13.60;99.90
19172;DHT22;9718;52.200;21.052;2022-10-16T04:13:56;13.50;99.90
19172;DHT22;9718;52.200;21.052;2022-10-16T04:16:23;13.40;99.90
19172;DHT22;9718;52.200;21.052;2022-10-16T04:18:50;13.20;99.90
19172;DHT22;9718;52.200;21.052;2022-10-16T04:21:17;13.10;99.90
19172;DHT22;9718;52.200;21.052;2022-10-16T04:23:44;13.10;99.90
19172;DHT22;9718;52.200;21.052;2022-10-16T04:26:12;13.00;99.90
19172;DHT22;9718;52.200;21.052;2022-10-16T04:28:39;12.90;99.90
19172;DHT22;9718;52.200;21.052;2022-10-16T04:31:07;12.90;99.90
19172;DHT22;9718;52.200;21.052;2022-10-16T04:33:34;12.80;99.90
19172;DHT22;9718;52.200;21.052;2022-10-16T04:36:02;12.80;99.90
19172;DHT22;9718;52.200;21.052;2022-10-16T04:38:30;12.70;99.90
19172;DHT22;9718;52.200;21.052;2022-10-16T04:40:57;12.70;99.90
19172;DHT22;9718;52.200;21.052;2022-10-16T04:43:24;12.70;99.90
19172;DHT22;9718;52.200;21.052;2022-10-16T04:45:51;12.70;99.90
19172;DHT22;9718;52.200;21.052;2022-10-16T04:48:19;12.80;99.90
19172;DHT22;9718;52.200;21.052;2022-10-16T04:50:46;12.80;99.90
19172;DHT22;9718;52.200;21.052;2022-10-16T04:53:22;12.90;99.90
19172;DHT22;9718;52.200;21.052;2022-10-16T04:55:50;12.90;99.90
19172;DHT22;9718;52.200;21.052;2022-10-16T04:58:17;13.00;99.90
19172;DHT22;9718;52.200;21.052;2022-10-16T05:00:45;13.10;99.90
19172;DHT22;9718;52.200;21.052;2022-10-16T05:03:13;13.10;99.90
19172;DHT22;9718;52.200;21.052;2022-10-16T05:05:45;13.20;99.90
19172;DHT22;9718;52.200;21.052;2022-10-16T05:08:13;13.20;99.90
19172;DHT22;9718;52.200;21.052;2022-10-16T05:10:44;13.20;99.90
19172;DHT22;9718;52.200;21.052;2022-10-16T05:13:12;13.20;99.90
19172;DHT22;9718;52.200;21.052;2022-10-16T05:15:39;13.20;99.90
19172;DHT22;9718;52.200;21.052;2022-10-16T05:18:06;13.20;99.90
19172;DHT22;9718;52.200;21.052;2022-10-16T05:20:33;13.20;99.90
19172;DHT22;9718;52.200;21.052;2022-10-16T05:23:00;13.20;99.90
19172;DHT22;9718;52.200;21.052;2022-10-16T05:25:28;13.30;99.90
19172;DHT22;9718;52.200;21.052;2022-10-16T05:27:55;13.40;99.90
19172;DHT22;9718;52.200;21.052;2022-10-16T05:30:22;13.40;99.90
19172;DHT22;9718;52.200;21.052;2022-10-16T05:32:50;13.50;99.90
19172;DHT22;9718;52.200;21.052;2022-10-16T05:35:18;13.50;99.90
19172;DHT22;9718;52.200;21.052;2022-10-16T05:37:46;13.60;99.90
19172;DHT22;9718;52.200;21.052;2022-10-16T05:40:14;13.60;99.90
19172;DHT22;9718;52.200;21.052;2022-10-16T05:42:41;13.60;99.90
19172;DHT22;9718;52.200;21.052;2022-10-16T05:45:10;13.50;99.90
19172;DHT22;9718;52.200;21.052;2022-10-16T05:47:38;13.60;99.90
19172;DHT22;9718;52.200;21.052;2022-10-16T05:50:06;13.50;99.90
19172;DHT22;9718;52.200;21.052;2022-10-16T05:52:33;13.50;99.90
19172;DHT22;9718;52.200;21.052;2022-10-16T05:55:00;13.50;99.90
19172;DHT22;9718;52.200;21.052;2022-10-16T05:57:28;13.40;99.90
19172;DHT22;9718;52.200;21.052;2022-10-16T05:59:55;13.50;99.90
19172;DHT22;9718;52.200;21.052;2022-10-16T06:02:22;13.50;99.90
19172;DHT22;9718;52.200;21.052;2022-10-16T06:04:51;13.50;99.90
19172;DHT22;9718;52.200;21.052;2022-10-16T06:07:20;13.40;99.90
19172;DHT22;9718;52.200;21.052;2022-10-16T06:09:49;13.50;99.90
19172;DHT22;9718;52.200;21.052;2022-10-16T06:12:17;13.60;99.90
19172;DHT22;9718;52.200;21.052;2022-10-16T06:14:45;13.70;99.90
19172;DHT22;9718;52.200;21.052;2022-10-16T06:17:14;13.80;99.90
19172;DHT22;9718;52.200;21.052;2022-10-16T06:19:41;14.00;99.90
19172;DHT22;9718;52.200;21.052;2022-10-16T06:22:08;14.10;99.90
19172;DHT22;9718;52.200;21.052;2022-10-16T06:24:35;14.20;99.90
19172;DHT22;9718;52.200;21.052;2022-10-16T06:27:03;14.30;99.90
19172;DHT22;9718;52.200;21.052;2022-10-16T06:29:31;14.50;99.90
19172;DHT22;9718;52.200;21.052;2022-10-16T06:31:58;14.70;99.90
19172;DHT22;9718;52.200;21.052;2022-10-16T06:34:25;14.90;99.90
19172;DHT22;9718;52.200;21.052;2022-10-16T06:36:52;15.00;99.90
19172;DHT22;9718;52.200;21.052;2022-10-16T06:39:19;15.10;99.90
19172;DHT22;9718;52.200;21.052;2022-10-16T06:41:46;15.30;99.90
19172;DHT22;9718;52.200;21.052;2022-10-16T06:44:14;15.40;99.90
19172;DHT22;9718;52.200;21.052;2022-10-16T06:46:41;15.60;99.90
19172;DHT22;9718;52.200;21.052;2022-10-16T06:49:08;15.70;99.90
19172;DHT22;9718;52.200;21.052;2022-10-16T06:51:35;15.60;99.90
19172;DHT22;9718;52.200;21.052;2022-10-16T06:54:09;15.70;99.90
19172;DHT22;9718;52.200;21.052;2022-10-16T06:56:36;15.90;99.90
19172;DHT22;9718;52.200;21.052;2022-10-16T06:59:04;15.80;99.90
19172;DHT22;9718;52.200;21.052;2022-10-16T07:01:32;15.80;99.90
19172;DHT22;9718;52.200;21.052;2022-10-16T07:04:00;15.60;99.90
19172;DHT22;9718;52.200;21.052;2022-10-16T07:06:31;15.60;99.90
19172;DHT22;9718;52.200;21.052;2022-10-16T07:09:02;15.40;99.90
19172;DHT22;9718;52.200;21.052;2022-10-16T07:11:30;15.40;99.90
19172;DHT22;9718;52.200;21.052;2022-10-16T07:13:57;15.30;99.90
19172;DHT22;9718;52.200;21.052;2022-10-16T07:16:30;15.20;99.90
19172;DHT22;9718;52.200;21.052;2022-10-16T07:18:59;15.20;99.90
19172;DHT22;9718;52.200;21.052;2022-10-16T07:21:30;15.20;99.90
19172;DHT22;9718;52.200;21.052;2022-10-16T07:24:00;15.20;99.90
19172;DHT22;9718;52.200;21.052;2022-10-16T07:26:30;15.20;99.90
19172;DHT22;9718;52.200;21.052;2022-10-16T07:28:58;15.10;99.90
19172;DHT22;9718;52.200;21.052;2022-10-16T07:31:25;15.30;99.90
19172;DHT22;9718;52.200;21.052;2022-10-16T07:33:53;15.40;99.90
19172;DHT22;9718;52.200;21.052;2022-10-16T07:36:20;15.50;99.90
19172;DHT22;9718;52.200;21.052;2022-10-16T07:38:48;15.70;99.90
19172;DHT22;9718;52.200;21.052;2022-10-16T07:41:19;15.80;99.90
19172;DHT22;9718;52.200;21.052;2022-10-16T07:43:48;16.00;99.90
19172;DHT22;9718;52.200;21.052;2022-10-16T07:46:16;16.10;99.90
19172;DHT22;9718;52.200;21.052;2022-10-16T07:48:44;16.40;99.90
19172;DHT22;9718;52.200;21.052;2022-10-16T07:51:16;16.90;99.90
19172;DHT22;9718;52.200;21.052;2022-10-16T07:53:43;17.20;99.90
19172;DHT22;9718;52.200;21.052;2022-10-16T07:56:11;17.50;99.90
19172;DHT22;9718;52.200;21.052;2022-10-16T07:58:39;17.80;99.90
19172;DHT22;9718;52.200;21.052;2022-10-16T08:01:07;17.80;99.90
19172;DHT22;9718;52.200;21.052;2022-10-16T08:03:36;17.80;99.90
19172;DHT22;9718;52.200;21.052;2022-10-16T08:06:04;17.80;99.90
19172;DHT22;9718;52.200;21.052;2022-10-16T08:08:31;18.00;99.90
19172;DHT22;9718;52.200;21.052;2022-10-16T08:10:59;18.00;99.90
19172;DHT22;9718;52.200;21.052;2022-10-16T08:13:26;18.10;99.90
19172;DHT22;9718;52.200;21.052;2022-10-16T08:15:54;18.20;99.90
19172;DHT22;9718;52.200;21.052;2022-10-16T08:18:22;18.20;99.90
19172;DHT22;9718;52.200;21.052;2022-10-16T08:20:55;18.20;99.90
19172;DHT22;9718;52.200;21.052;2022-10-16T08:23:24;17.90;99.90
19172;DHT22;9718;52.200;21.052;2022-10-16T08:25:53;17.90;99.90
19172;DHT22;9718;52.200;21.052;2022-10-16T08:28:21;17.80;99.90
19172;DHT22;9718;52.200;21.052;2022-10-16T08:30:49;17.80;99.90
19172;DHT22;9718;52.200;21.052;2022-10-16T08:33:16;17.90;99.90
19172;DHT22;9718;52.200;21.052;2022-10-16T08:35:50;18.00;99.90
19172;DHT22;9718;52.200;21.052;2022-10-16T08:38:17;18.30;99.90
19172;DHT22;9718;52.200;21.052;2022-10-16T08:40:45;18.30;99.90
19172;DHT22;9718;52.200;21.052;2022-10-16T08:50:58;17.60;99.90
19172;DHT22;9718;52.200;21.052;2022-10-16T08:53:54;17.40;99.90
19172;DHT22;9718;52.200;21.052;2022-10-16T08:56:23;17.40;99.90
19172;DHT22;9718;52.200;21.052;2022-10-16T08:58:52;17.40;99.90
19172;DHT22;9718;52.200;21.052;2022-10-16T09:01:40;17.60;99.90
19172;DHT22;9718;52.200;21.052;2022-10-16T09:04:41;17.60;99.90
19172;DHT22;9718;52.200;21.052;2022-10-16T09:07:08;17.80;99.90
19172;DHT22;9718;52.200;21.052;2022-10-16T09:18:03;18.20;99.90
19172;DHT22;9718;52.200;21.052;2022-10-16T09:20:59;18.20;99.90
19172;DHT22;9718;52.200;21.052;2022-10-16T09:23:30;18.50;99.90
19172;DHT22;9718;52.200;21.052;2022-10-16T09:25:58;18.90;99.90
19172;DHT22;9718;52.200;21.052;2022-10-16T09:28:26;18.80;99.90
19172;DHT22;9718;52.200;21.052;2022-10-16T09:30:53;18.50;99.90
19172;DHT22;9718;52.200;21.052;2022-10-16T09:33:25;18.60;99.90
19172;DHT22;9718;52.200;21.052;2022-10-16T09:35:54;18.40;99.90
19172;DHT22;9718;52.200;21.052;2022-10-16T09:38:33;18.50;99.90
19172;DHT22;9718;52.200;21.052;2022-10-16T09:41:22;18.60;99.90
19172;DHT22;9718;52.200;21.052;2022-10-16T09:43:55;18.60;99.90
19172;DHT22;9718;52.200;21.052;2022-10-16T09:46:33;18.60;99.90
19172;DHT22;9718;52.200;21.052;2022-10-16T09:49:16;18.80;99.90
19172;DHT22;9718;52.200;21.052;2022-10-16T09:51:45;18.70;99.90
19172;DHT22;9718;52.200;21.052;2022-10-16T09:54:16;18.60;99.90
19172;DHT22;9718;52.200;21.052;2022-10-16T09:56:43;18.70;99.90
19172;DHT22;9718;52.200;21.052;2022-10-16T09:59:20;18.80;99.90
19172;DHT22;9718;52.200;21.052;2022-10-16T10:01:54;18.80;99.90
19172;DHT22;9718;52.200;21.052;2022-10-16T10:04:23;18.90;99.90
19172;DHT22;9718;52.200;21.052;2022-10-16T10:06:54;19.10;99.90
19172;DHT22;9718;52.200;21.052;2022-10-16T10:09:38;19.30;99.90
19172;DHT22;9718;52.200;21.052;2022-10-16T10:12:17;19.60;99.90
19172;DHT22;9718;52.200;21.052;2022-10-16T10:14:52;19.60;99.90
19172;DHT22;9718;52.200;21.052;2022-10-16T10:17:27;19.60;99.90
19172;DHT22;9718;52.200;21.052;2022-10-16T10:22:48;19.90;99.90
19172;DHT22;9718;52.200;21.052;2022-10-16T10:28:21;20.00;99.90
19172;DHT22;9718;52.200;21.052;2022-10-16T10:36:30;20.20;99.90
19172;DHT22;9718;52.200;21.052;2022-10-16T10:44:55;20.20;99.90
19172;DHT22;9718;52.200;21.052;2022-10-16T10:50:02;20.00;99.90
19172;DHT22;9718;52.200;21.052;2022-10-16T11:03:26;20.00;99.90
19172;DHT22;9718;52.200;21.052;2022-10-16T11:05:59;20.20;99.90
19172;DHT22;9718;52.200;21.052;2022-10-16T11:11:11;20.20;99.90
19172;DHT22;9718;52.200;21.052;2022-10-16T11:16:39;20.40;99.90
19172;DHT22;9718;52.200;21.052;2022-10-16T11:22:01;20.20;99.90
19172;DHT22;9718;52.200;21.052;2022-10-16T11:24:42;20.10;99.90
19172;DHT22;9718;52.200;21.052;2022-10-16T11:27:17;20.00;99.90
19172;DHT22;9718;52.200;21.052;2022-10-16T11:29:57;19.90;99.90
19172;DHT22;9718;52.200;21.052;2022-10-16T11:32:49;20.00;99.90
19172;DHT22;9718;52.200;21.052;2022-10-16T11:35:44;19.90;99.90
19172;DHT22;9718;52.200;21.052;2022-10-16T11:47:03;20.30;99.90
19172;DHT22;9718;52.200;21.052;2022-10-16T11:50:00;20.30;99.90
19172;DHT22;9718;52.200;21.052;2022-10-16T11:53:01;20.10;99.90
19172;DHT22;9718;52.200;21.052;2022-10-16T11:55:39;20.30;99.90
19172;DHT22;9718;52.200;21.052;2022-10-16T11:58:25;20.60;99.90
19172;DHT22;9718;52.200;21.052;2022-10-16T12:04:34;20.60;99.90
19172;DHT22;9718;52.200;21.052;2022-10-16T12:07:27;20.50;99.90
19172;DHT22;9718;52.200;21.052;2022-10-16T12:10:25;20.20;99.90
19172;DHT22;9718;52.200;21.052;2022-10-16T12:19:19;20.00;99.90
19172;DHT22;9718;52.200;21.052;2022-10-16T12:22:18;20.00;99.90
19172;DHT22;9718;52.200;21.052;2022-10-16T12:24:59;20.10;99.90
19172;DHT22;9718;52.200;21.052;2022-10-16T12:27:31;20.10;99.90
19172;DHT22;9718;52.200;21.052;2022-10-16T12:30:01;20.00;99.90
19172;DHT22;9718;52.200;21.052;2022-10-16T12:32:34;20.00;99.90
19172;DHT22;9718;52.200;21.052;2022-10-16T12:35:35;19.90;99.90
19172;DHT22;9718;52.200;21.052;2022-10-16T12:40:54;19.80;99.90
19172;DHT22;9718;52.200;21.052;2022-10-16T12:46:41;19.70;99.90
19172;DHT22;9718;52.200;21.052;2022-10-16T12:51:42;19.80;99.90
19172;DHT22;9718;52.200;21.052;2022-10-16T12:54:18;19.90;99.90
19172;DHT22;9718;52.200;21.052;2022-10-16T13:10:41;19.80;99.90
19172;DHT22;9718;52.200;21.052;2022-10-16T13:18:48;19.90;99.90
19172;DHT22;9718;52.200;21.052;2022-10-16T13:26:56;19.90;99.90
19172;DHT22;9718;52.200;21.052;2022-10-16T13:29:32;19.90;99.90
19172;DHT22;9718;52.200;21.052;2022-10-16T13:32:01;19.80;99.90
19172;DHT22;9718;52.200;21.052;2022-10-16T13:34:46;19.80;99.90
19172;DHT22;9718;52.200;21.052;2022-10-16T13:37:24;19.70;99.90
19172;DHT22;9718;52.200;21.052;2022-10-16T13:40:06;19.70;99.90
19172;DHT22;9718;52.200;21.052;2022-10-16T13:42:34;19.70;99.90
19172;DHT22;9718;52.200;21.052;2022-10-16T13:45:01;19.70;99.90
19172;DHT22;9718;52.200;21.052;2022-10-16T13:47:29;19.70;99.90
19172;DHT22;9718;52.200;21.052;2022-10-16T13:50:11;19.70;99.90
19172;DHT22;9718;52.200;21.052;2022-10-16T13:52:39;19.60;99.90
19172;DHT22;9718;52.200;21.052;2022-10-16T13:55:14;19.60;99.90
19172;DHT22;9718;52.200;21.052;2022-10-16T13:57:42;19.70;99.90
19172;DHT22;9718;52.200;21.052;2022-10-16T14:00:26;19.70;99.90
19172;DHT22;9718;52.200;21.052;2022-10-16T14:03:16;19.60;99.90
19172;DHT22;9718;52.200;21.052;2022-10-16T14:05:59;19.70;99.90
19172;DHT22;9718;52.200;21.052;2022-10-16T14:08:28;19.70;99.90
19172;DHT22;9718;52.200;21.052;2022-10-16T14:10:59;19.70;99.90
19172;DHT22;9718;52.200;21.052;2022-10-16T14:13:44;19.70;99.90
19172;DHT22;9718;52.200;21.052;2022-10-16T14:16:39;19.70;99.90
19172;DHT22;9718;52.200;21.052;2022-10-16T14:19:28;19.70;99.90
19172;DHT22;9718;52.200;21.052;2022-10-16T14:21:56;19.70;99.90
19172;DHT22;9718;52.200;21.052;2022-10-16T14:24:35;19.70;99.90
19172;DHT22;9718;52.200;21.052;2022-10-16T14:27:20;19.70;99.90
19172;DHT22;9718;52.200;21.052;2022-10-16T14:29:49;19.70;99.90
19172;DHT22;9718;52.200;21.052;2022-10-16T14:32:23;19.60;99.90
19172;DHT22;9718;52.200;21.052;2022-10-16T14:34:54;19.60;99.90
19172;DHT22;9718;52.200;21.052;2022-10-16T14:37:27;19.60;99.90
19172;DHT22;9718;52.200;21.052;2022-10-16T14:40:03;19.60;99.90
19172;DHT22;9718;52.200;21.052;2022-10-16T14:42:30;19.60;99.90
19172;DHT22;9718;52.200;21.052;2022-10-16T14:44:57;19.70;99.90
19172;DHT22;9718;52.200;21.052;2022-10-16T14:47:26;19.70;99.90
19172;DHT22;9718;52.200;21.052;2022-10-16T14:49:54;19.70;99.90
19172;DHT22;9718;52.200;21.052;2022-10-16T14:52:24;19.70;99.90
19172;DHT22;9718;52.200;21.052;2022-10-16T14:54:51;19.70;99.90
19172;DHT22;9718;52.200;21.052;2022-10-16T14:57:27;19.70;99.90
19172;DHT22;9718;52.200;21.052;2022-10-16T14:59:55;19.60;99.90
19172;DHT22;9718;52.200;21.052;2022-10-16T15:02:35;19.60;99.90
19172;DHT22;9718;52.200;21.052;2022-10-16T15:05:18;19.60;99.90
19172;DHT22;9718;52.200;21.052;2022-10-16T15:07:46;19.60;99.90
19172;DHT22;9718;52.200;21.052;2022-10-16T15:10:14;19.60;99.90
19172;DHT22;9718;52.200;21.052;2022-10-16T15:12:41;19.50;99.90
19172;DHT22;9718;52.200;21.052;2022-10-16T15:15:25;19.50;99.90
19172;DHT22;9718;52.200;21.052;2022-10-16T15:17:54;19.50;99.90
19172;DHT22;9718;52.200;21.052;2022-10-16T15:20:29;19.40;99.90
19172;DHT22;9718;52.200;21.052;2022-10-16T15:22:57;19.40;99.90
19172;DHT22;9718;52.200;21.052;2022-10-16T15:25:35;19.30;99.90
19172;DHT22;9718;52.200;21.052;2022-10-16T15:28:04;19.40;99.90
19172;DHT22;9718;52.200;21.052;2022-10-16T15:30:31;19.40;99.90
19172;DHT22;9718;52.200;21.052;2022-10-16T15:32:59;19.30;99.90
19172;DHT22;9718;52.200;21.052;2022-10-16T15:35:26;19.30;99.90
19172;DHT22;9718;52.200;21.052;2022-10-16T15:37:54;19.30;99.90
19172;DHT22;9718;52.200;21.052;2022-10-16T15:40:22;19.20;99.90
19172;DHT22;9718;52.200;21.052;2022-10-16T15:42:49;19.20;99.90
19172;DHT22;9718;52.200;21.052;2022-10-16T15:45:17;19.20;99.90
19172;DHT22;9718;52.200;21.052;2022-10-16T15:47:46;19.10;99.90
19172;DHT22;9718;52.200;21.052;2022-10-16T15:50:14;19.10;99.90
19172;DHT22;9718;52.200;21.052;2022-10-16T15:52:41;19.10;99.90
19172;DHT22;9718;52.200;21.052;2022-10-16T15:55:11;19.10;99.90
19172;DHT22;9718;52.200;21.052;2022-10-16T15:57:38;19.10;99.90
19172;DHT22;9718;52.200;21.052;2022-10-16T16:00:15;19.10;99.90
19172;DHT22;9718;52.200;21.052;2022-10-16T16:02:45;19.10;99.90
19172;DHT22;9718;52.200;21.052;2022-10-16T16:05:16;19.00;99.90
19172;DHT22;9718;52.200;21.052;2022-10-16T16:07:43;19.00;99.90
19172;DHT22;9718;52.200;21.052;2022-10-16T16:10:10;19.00;99.90
19172;DHT22;9718;52.200;21.052;2022-10-16T16:12:38;19.00;99.90
19172;DHT22;9718;52.200;21.052;2022-10-16T16:15:06;18.90;99.90
19172;DHT22;9718;52.200;21.052;2022-10-16T16:17:35;18.90;99.90
19172;DHT22;9718;52.200;21.052;2022-10-16T16:20:03;18.90;99.90
19172;DHT22;9718;52.200;21.052;2022-10-16T16:22:31;18.80;99.90
19172;DHT22;9718;52.200;21.052;2022-10-16T16:24:58;18.80;99.90
19172;DHT22;9718;52.200;21.052;2022-10-16T16:27:25;18.80;99.90
19172;DHT22;9718;52.200;21.052;2022-10-16T16:29:53;18.80;99.90
19172;DHT22;9718;52.200;21.052;2022-10-16T16:32:22;18.80;99.90
19172;DHT22;9718;52.200;21.052;2022-10-16T16:34:49;18.80;99.90
19172;DHT22;9718;52.200;21.052;2022-10-16T16:37:16;18.80;99.90
19172;DHT22;9718;52.200;21.052;2022-10-16T16:39:43;18.80;99.90
19172;DHT22;9718;52.200;21.052;2022-10-16T16:42:11;18.70;99.90
19172;DHT22;9718;52.200;21.052;2022-10-16T16:44:38;18.70;99.90
19172;DHT22;9718;52.200;21.052;2022-10-16T16:47:05;18.70;99.90
19172;DHT22;9718;52.200;21.052;2022-10-16T16:49:32;18.60;99.90
19172;DHT22;9718;52.200;21.052;2022-10-16T16:52:00;18.50;99.90
19172;DHT22;9718;52.200;21.052;2022-10-16T16:54:27;18.50;99.90
19172;DHT22;9718;52.200;21.052;2022-10-16T16:56:54;18.50;99.90
19172;DHT22;9718;52.200;21.052;2022-10-16T16:59:21;18.40;99.90
19172;DHT22;9718;52.200;21.052;2022-10-16T17:01:49;18.30;99.90
19172;DHT22;9718;52.200;21.052;2022-10-16T17:04:22;18.30;99.90
19172;DHT22;9718;52.200;21.052;2022-10-16T17:06:50;18.20;99.90
19172;DHT22;9718;52.200;21.052;2022-10-16T17:09:17;18.20;99.90
19172;DHT22;9718;52.200;21.052;2022-10-16T17:11:44;18.20;99.90
19172;DHT22;9718;52.200;21.052;2022-10-16T17:14:12;18.20;99.90
19172;DHT22;9718;52.200;21.052;2022-10-16T17:16:41;18.10;99.90
19172;DHT22;9718;52.200;21.052;2022-10-16T17:19:13;18.10;99.90
19172;DHT22;9718;52.200;21.052;2022-10-16T17:21:41;18.00;99.90
19172;DHT22;9718;52.200;21.052;2022-10-16T17:24:08;18.00;99.90
19172;DHT22;9718;52.200;21.052;2022-10-16T17:26:37;18.00;99.90
19172;DHT22;9718;52.200;21.052;2022-10-16T17:29:05;18.00;99.90
19172;DHT22;9718;52.200;21.052;2022-10-16T17:31:35;18.00;99.90
19172;DHT22;9718;52.200;21.052;2022-10-16T17:34:05;17.90;99.90
19172;DHT22;9718;52.200;21.052;2022-10-16T17:36:34;17.90;99.90
19172;DHT22;9718;52.200;21.052;2022-10-16T17:39:07;17.90;99.90
19172;DHT22;9718;52.200;21.052;2022-10-16T17:41:35;17.80;99.90
19172;DHT22;9718;52.200;21.052;2022-10-16T17:44:04;17.70;99.90
19172;DHT22;9718;52.200;21.052;2022-10-16T17:46:31;17.70;99.90
19172;DHT22;9718;52.200;21.052;2022-10-16T17:49:05;17.70;99.90
19172;DHT22;9718;52.200;21.052;2022-10-16T17:51:33;17.60;99.90
19172;DHT22;9718;52.200;21.052;2022-10-16T17:54:00;17.60;99.90
19172;DHT22;9718;52.200;21.052;2022-10-16T17:56:29;17.60;99.90
19172;DHT22;9718;52.200;21.052;2022-10-16T17:58:58;17.70;99.90
19172;DHT22;9718;52.200;21.052;2022-10-16T18:01:36;17.60;99.90